createdAt,value
2018-09-22T00:00:21.165Z,0
2018-09-22T00:01:20.630Z,0
2018-09-22T00:02:21.399Z,0
2018-09-22T00:03:20.854Z,0
2018-09-22T00:04:20.836Z,0
2018-09-22T00:05:20.565Z,0
2018-09-22T00:06:20.794Z,0
2018-09-22T00:07:20.799Z,0
2018-09-22T00:08:20.514Z,0
2018-09-22T00:09:21.013Z,0
2018-09-22T00:10:20.214Z,0
2018-09-22T00:11:20.721Z,0
2018-09-22T00:12:20.964Z,0
2018-09-22T00:13:20.685Z,0
2018-09-22T00:14:20.940Z,0
2018-09-22T00:15:20.985Z,0
2018-09-22T00:16:21.174Z,0
2018-09-22T00:17:20.640Z,0
2018-09-22T00:18:20.640Z,0
2018-09-22T00:19:20.624Z,0
2018-09-22T00:20:20.575Z,0
2018-09-22T00:21:20.553Z,0
2018-09-22T00:22:20.548Z,0
2018-09-22T00:23:21.056Z,0
2018-09-22T00:24:20.775Z,0
2018-09-22T00:25:20.219Z,0
2018-09-22T00:26:20.740Z,0
2018-09-22T00:27:21.108Z,0
2018-09-22T00:28:20.988Z,0
2018-09-22T00:29:20.434Z,0
2018-09-22T00:30:20.680Z,0
2018-09-22T00:31:20.395Z,0
2018-09-22T00:32:20.390Z,0
2018-09-22T00:33:20.650Z,0
2018-09-22T00:34:20.623Z,0
2018-09-22T00:35:20.859Z,0
2018-09-22T00:36:20.328Z,0
2018-09-22T00:37:19.774Z,0
2018-09-22T00:38:20.807Z,0
2018-09-22T00:39:20.807Z,0
2018-09-22T00:40:20.240Z,0
2018-09-22T00:41:20.511Z,0
2018-09-22T00:42:20.748Z,0
2018-09-22T00:43:20.475Z,0
2018-09-22T00:44:20.205Z,0
2018-09-22T00:45:19.670Z,0
2018-09-22T00:46:20.409Z,0
2018-09-22T00:47:20.139Z,0
2018-09-22T00:48:19.848Z,0
2018-09-22T00:49:20.368Z,0
2018-09-22T00:50:20.818Z,0
2018-09-22T00:51:20.067Z,0
2018-09-22T00:52:19.810Z,0
2018-09-22T00:53:20.036Z,0
2018-09-22T00:54:20.285Z,0
2018-09-22T00:55:20.277Z,0
2018-09-22T00:56:19.456Z,0
2018-09-22T00:57:20.247Z,0
2018-09-22T00:58:19.964Z,0
2018-09-22T00:59:20.477Z,0
2018-09-22T01:00:19.929Z,0
2018-09-22T01:01:19.650Z,0
2018-09-22T01:02:20.168Z,0
2018-09-22T01:03:19.871Z,0
2018-09-22T01:04:20.124Z,0
2018-09-22T01:05:20.356Z,0
2018-09-22T01:06:20.095Z,0
2018-09-22T01:07:20.077Z,0
2018-09-22T01:08:20.062Z,0
2018-09-22T01:09:19.792Z,0
2018-09-22T01:10:19.501Z,0
2018-09-22T01:11:19.755Z,0
2018-09-22T01:12:19.729Z,0
2018-09-22T01:13:19.710Z,0
2018-09-22T01:14:19.995Z,0
2018-09-22T01:15:19.678Z,0
2018-09-22T01:16:19.433Z,0
2018-09-22T01:17:19.639Z,0
2018-09-22T01:18:20.165Z,0
2018-09-22T01:19:20.169Z,0
2018-09-22T01:20:19.333Z,0
2018-09-22T01:21:19.316Z,0
2018-09-22T01:22:19.568Z,0
2018-09-22T01:23:19.816Z,0
2018-09-22T01:24:19.530Z,0
2018-09-22T01:25:19.260Z,0
2018-09-22T01:26:19.498Z,0
2018-09-22T01:27:19.220Z,0
2018-09-22T01:28:19.472Z,0
2018-09-22T01:29:19.193Z,0
2018-09-22T01:30:19.693Z,0
2018-09-22T01:31:19.683Z,0
2018-09-22T01:32:19.661Z,0
2018-09-22T01:33:18.872Z,0
2018-09-22T01:34:19.900Z,0
2018-09-22T01:35:19.626Z,0
2018-09-22T01:36:19.870Z,0
2018-09-22T01:37:19.316Z,0
2018-09-22T01:38:19.574Z,0
2018-09-22T01:39:19.285Z,0
2018-09-22T01:40:19.794Z,0
2018-09-22T01:41:19.523Z,0
2018-09-22T01:42:19.257Z,0
2018-09-22T01:43:19.762Z,0
2018-09-22T01:44:19.203Z,0
2018-09-22T01:45:18.931Z,0
2018-09-22T01:46:19.440Z,0
2018-09-22T01:47:19.415Z,0
2018-09-22T01:48:19.131Z,0
2018-09-22T01:49:19.383Z,0
2018-09-22T01:50:19.126Z,0
2018-09-22T01:51:18.830Z,0
2018-09-22T01:52:19.183Z,0
2018-09-22T01:53:18.529Z,0
2018-09-22T01:54:19.350Z,0
2018-09-22T01:55:19.557Z,0
2018-09-22T01:56:19.283Z,0
2018-09-22T01:57:19.002Z,0
2018-09-22T01:58:19.240Z,0
2018-09-22T01:59:18.975Z,0
2018-09-22T02:00:18.683Z,0
2018-09-22T02:01:19.043Z,0
2018-09-22T02:02:18.915Z,0
2018-09-22T02:03:18.899Z,0
2018-09-22T02:04:18.618Z,0
2018-09-22T02:05:19.128Z,0
2018-09-22T02:06:19.113Z,0
2018-09-22T02:07:18.833Z,0
2018-09-22T02:08:18.561Z,0
2018-09-22T02:09:18.542Z,0
2018-09-22T02:10:18.826Z,0
2018-09-22T02:11:19.293Z,0
2018-09-22T02:12:19.023Z,0
2018-09-22T02:13:18.749Z,0
2018-09-22T02:14:18.732Z,0
2018-09-22T02:15:18.439Z,0
2018-09-22T02:16:19.229Z,0
2018-09-22T02:17:18.938Z,0
2018-09-22T02:18:18.657Z,0
2018-09-22T02:19:18.637Z,0
2018-09-22T02:20:19.160Z,0
2018-09-22T02:21:18.614Z,0
2018-09-22T02:22:19.140Z,0
2018-09-22T02:23:18.842Z,0
2018-09-22T02:24:19.037Z,0
2018-09-22T02:25:18.549Z,0
2018-09-22T02:26:18.525Z,0
2018-09-22T02:27:18.244Z,0
2018-09-22T02:28:18.498Z,0
2018-09-22T02:29:18.764Z,0
2018-09-22T02:30:18.472Z,0
2018-09-22T02:31:18.709Z,0
2018-09-22T02:32:18.467Z,0
2018-09-22T02:33:18.156Z,0
2018-09-22T02:34:18.396Z,0
2018-09-22T02:35:18.120Z,0
2018-09-22T02:36:18.683Z,0
2018-09-22T02:37:18.091Z,0
2018-09-22T02:38:18.348Z,0
2018-09-22T02:39:18.860Z,0
2018-09-22T02:40:18.574Z,0
2018-09-22T02:41:18.569Z,0
2018-09-22T02:42:18.041Z,0
2018-09-22T02:43:18.253Z,0
2018-09-22T02:44:18.245Z,0
2018-09-22T02:45:18.494Z,0
2018-09-22T02:46:17.966Z,0
2018-09-22T02:47:18.192Z,0
2018-09-22T02:48:18.701Z,0
2018-09-22T02:49:18.426Z,0
2018-09-22T02:50:18.364Z,0
2018-09-22T02:51:18.201Z,0
2018-09-22T02:52:18.381Z,0
2018-09-22T02:53:18.383Z,0
2018-09-22T02:54:17.544Z,0
2018-09-22T02:55:18.056Z,0
2018-09-22T02:56:18.566Z,0
2018-09-22T02:57:18.297Z,0
2018-09-22T02:58:18.286Z,0
2018-09-22T02:59:17.994Z,0
2018-09-22T03:00:18.251Z,0
2018-09-22T03:01:17.955Z,0
2018-09-22T03:02:18.212Z,0
2018-09-22T03:03:17.921Z,0
2018-09-22T03:04:17.968Z,0
2018-09-22T03:05:17.636Z,0
2018-09-22T03:06:18.409Z,0
2018-09-22T03:07:17.602Z,0
2018-09-22T03:08:18.117Z,0
2018-09-22T03:09:18.127Z,0
2018-09-22T03:10:17.825Z,0
2018-09-22T03:11:17.804Z,0
2018-09-22T03:12:17.517Z,0
2018-09-22T03:13:17.781Z,0
2018-09-22T03:14:17.515Z,0
2018-09-22T03:15:19.065Z,0
2018-09-22T03:16:17.992Z,0
2018-09-22T03:17:18.234Z,0
2018-09-22T03:18:17.721Z,0
2018-09-22T03:19:17.405Z,0
2018-09-22T03:20:18.033Z,0
2018-09-22T03:21:17.106Z,0
2018-09-22T03:22:17.879Z,0
2018-09-22T03:23:17.340Z,0
2018-09-22T03:24:17.057Z,0
2018-09-22T03:25:18.164Z,0
2018-09-22T03:26:17.846Z,0
2018-09-22T03:27:17.816Z,0
2018-09-22T03:28:17.535Z,0
2018-09-22T03:29:17.796Z,0
2018-09-22T03:30:18.054Z,0
2018-09-22T03:31:17.776Z,0
2018-09-22T03:32:16.937Z,0
2018-09-22T03:33:17.707Z,0
2018-09-22T03:34:17.694Z,0
2018-09-22T03:35:17.690Z,0
2018-09-22T03:36:17.137Z,0
2018-09-22T03:37:17.659Z,0
2018-09-22T03:38:17.639Z,0
2018-09-22T03:39:17.349Z,0
2018-09-22T03:40:17.596Z,0
2018-09-22T03:41:17.320Z,0
2018-09-22T03:42:17.032Z,0
2018-09-22T03:43:17.548Z,0
2018-09-22T03:44:17.001Z,0
2018-09-22T03:45:17.241Z,0
2018-09-22T03:46:17.228Z,0
2018-09-22T03:47:17.216Z,0
2018-09-22T03:48:16.942Z,0
2018-09-22T03:49:17.200Z,0
2018-09-22T03:50:17.448Z,0
2018-09-22T03:51:17.425Z,0
2018-09-22T03:52:16.872Z,0
2018-09-22T03:53:17.125Z,0
2018-09-22T03:54:17.104Z,0
2018-09-22T03:55:17.632Z,0
2018-09-22T03:56:17.337Z,0
2018-09-22T03:57:17.053Z,0
2018-09-22T03:58:17.038Z,0
2018-09-22T03:59:17.021Z,0
2018-09-22T04:00:16.744Z,0
2018-09-22T04:01:17.249Z,0
2018-09-22T04:02:16.984Z,0
2018-09-22T04:03:16.695Z,0
2018-09-22T04:04:16.977Z,0
2018-09-22T04:05:17.459Z,0
2018-09-22T04:06:16.636Z,0
2018-09-22T04:07:17.155Z,0
2018-09-22T04:08:16.876Z,0
2018-09-22T04:09:16.593Z,0
2018-09-22T04:10:16.855Z,0
2018-09-22T04:11:16.300Z,0
2018-09-22T04:12:16.820Z,0
2018-09-22T04:13:17.329Z,0
2018-09-22T04:14:17.039Z,0
2018-09-22T04:15:16.760Z,0
2018-09-22T04:16:17.009Z,0
2018-09-22T04:17:16.472Z,0
2018-09-22T04:18:16.456Z,0
2018-09-22T04:19:16.700Z,0
2018-09-22T04:20:16.943Z,0
2018-09-22T04:21:16.924Z,0
2018-09-22T04:22:16.380Z,0
2018-09-22T04:23:16.899Z,0
2018-09-22T04:24:16.367Z,0
2018-09-22T04:25:16.343Z,0
2018-09-22T04:26:16.851Z,0
2018-09-22T04:27:17.112Z,0
2018-09-22T04:28:16.827Z,0
2018-09-22T04:29:16.567Z,0
2018-09-22T04:30:16.809Z,0
2018-09-22T04:31:16.251Z,0
2018-09-22T04:32:16.751Z,0
2018-09-22T04:33:16.656Z,0
2018-09-22T04:34:16.773Z,0
2018-09-22T04:35:16.965Z,0
2018-09-22T04:36:16.685Z,0
2018-09-22T04:37:16.660Z,0
2018-09-22T04:38:16.407Z,0
2018-09-22T04:39:16.411Z,0
2018-09-22T04:40:16.353Z,0
2018-09-22T04:41:16.360Z,0
2018-09-22T04:42:16.590Z,0
2018-09-22T04:43:16.036Z,0
2018-09-22T04:44:16.564Z,0
2018-09-22T04:45:16.006Z,0
2018-09-22T04:46:16.517Z,0
2018-09-22T04:47:16.255Z,0
2018-09-22T04:48:16.481Z,0
2018-09-22T04:49:15.944Z,0
2018-09-22T04:50:15.868Z,0
2018-09-22T04:51:16.177Z,0
2018-09-22T04:52:16.733Z,0
2018-09-22T04:53:16.446Z,0
2018-09-22T04:54:15.876Z,0
2018-09-22T04:55:16.116Z,0
2018-09-22T04:56:16.624Z,0
2018-09-22T04:57:16.074Z,0
2018-09-22T04:58:16.325Z,0
2018-09-22T04:59:16.315Z,0
2018-09-22T05:00:16.305Z,0
2018-09-22T05:01:16.008Z,0
2018-09-22T05:02:16.477Z,0
2018-09-22T05:03:16.255Z,0
2018-09-22T05:04:15.697Z,0
2018-09-22T05:05:15.681Z,0
2018-09-22T05:06:15.944Z,0
2018-09-22T05:07:15.922Z,0
2018-09-22T05:08:16.163Z,0
2018-09-22T05:09:16.161Z,0
2018-09-22T05:10:15.861Z,0
2018-09-22T05:11:16.116Z,0
2018-09-22T05:12:16.105Z,0
2018-09-22T05:13:16.362Z,0
2018-09-22T05:14:15.820Z,0
2018-09-22T05:15:16.075Z,0
2018-09-22T05:16:16.320Z,0
2018-09-22T05:17:16.478Z,0
2018-09-22T05:18:15.995Z,0
2018-09-22T05:19:16.029Z,0
2018-09-22T05:20:16.230Z,0
2018-09-22T05:21:15.695Z,5
2018-09-22T05:22:15.956Z,5
2018-09-22T05:23:15.658Z,5
2018-09-22T05:24:15.378Z,5
2018-09-22T05:25:15.643Z,5
2018-09-22T05:26:15.362Z,5
2018-09-22T05:27:15.870Z,5
2018-09-22T05:28:15.897Z,5
2018-09-22T05:29:15.293Z,10
2018-09-22T05:30:15.277Z,10
2018-09-22T05:31:15.261Z,10
2018-09-22T05:32:15.517Z,10
2018-09-22T05:33:14.963Z,10
2018-09-22T05:34:16.005Z,10
2018-09-22T05:35:15.203Z,10
2018-09-22T05:36:15.189Z,10
2018-09-22T05:37:15.698Z,10
2018-09-22T05:38:15.683Z,10
2018-09-22T05:39:15.141Z,15
2018-09-22T05:40:16.114Z,15
2018-09-22T05:41:15.370Z,15
2018-09-22T05:42:15.358Z,15
2018-09-22T05:43:15.591Z,15
2018-09-22T05:44:15.322Z,15
2018-09-22T05:45:15.578Z,15
2018-09-22T05:46:15.016Z,15
2018-09-22T05:47:15.271Z,15
2018-09-22T05:48:14.995Z,15
2018-09-22T05:49:15.772Z,20
2018-09-22T05:50:15.229Z,20
2018-09-22T05:51:15.208Z,20
2018-09-22T05:52:15.466Z,20
2018-09-22T05:53:15.438Z,25
2018-09-22T05:54:15.461Z,25
2018-09-22T05:55:15.404Z,25
2018-09-22T05:56:15.117Z,25
2018-09-22T05:57:15.632Z,30
2018-09-22T05:58:16.030Z,30
2018-09-22T05:59:15.338Z,30
2018-09-22T06:00:15.330Z,30
2018-09-22T06:01:15.041Z,35
2018-09-22T06:02:14.500Z,35
2018-09-22T06:03:15.280Z,35
2018-09-22T06:04:15.262Z,35
2018-09-22T06:05:14.975Z,35
2018-09-22T06:06:15.227Z,35
2018-09-22T06:07:14.683Z,40
2018-09-22T06:08:15.194Z,35
2018-09-22T06:09:14.937Z,35
2018-09-22T06:10:15.164Z,30
2018-09-22T06:11:15.412Z,30
2018-09-22T06:12:15.129Z,35
2018-09-22T06:13:15.114Z,40
2018-09-22T06:14:15.090Z,35
2018-09-22T06:15:14.821Z,35
2018-09-22T06:16:15.333Z,35
2018-09-22T06:17:15.321Z,30
2018-09-22T06:18:14.766Z,35
2018-09-22T06:19:14.756Z,40
2018-09-22T06:20:15.002Z,40
2018-09-22T06:21:14.734Z,45
2018-09-22T06:22:14.444Z,50
2018-09-22T06:23:14.486Z,50
2018-09-22T06:24:14.940Z,55
2018-09-22T06:25:14.397Z,50
2018-09-22T06:26:14.661Z,50
2018-09-22T06:27:14.638Z,50
2018-09-22T06:28:14.340Z,50
2018-09-22T06:29:14.592Z,45
2018-09-22T06:30:14.849Z,50
2018-09-22T06:31:14.567Z,50
2018-09-22T06:32:14.548Z,50
2018-09-22T06:33:15.055Z,50
2018-09-22T06:34:14.777Z,50
2018-09-22T06:35:14.498Z,50
2018-09-22T06:36:13.955Z,50
2018-09-22T06:37:14.773Z,45
2018-09-22T06:38:14.464Z,50
2018-09-22T06:39:14.440Z,50
2018-09-22T06:40:14.430Z,50
2018-09-22T06:41:15.002Z,45
2018-09-22T06:42:14.391Z,45
2018-09-22T06:43:14.642Z,45
2018-09-22T06:44:14.102Z,45
2018-09-22T06:45:14.613Z,45
2018-09-22T06:46:14.490Z,50
2018-09-22T06:47:14.592Z,50
2018-09-22T06:48:14.593Z,50
2018-09-22T06:49:14.811Z,60
2018-09-22T06:50:14.995Z,65
2018-09-22T06:51:14.260Z,70
2018-09-22T06:52:14.500Z,80
2018-09-22T06:53:14.481Z,85
2018-09-22T06:54:14.475Z,90
2018-09-22T06:55:14.734Z,85
2018-09-22T06:56:14.717Z,85
2018-09-22T06:57:14.436Z,85
2018-09-22T06:58:14.411Z,85
2018-09-22T06:59:14.399Z,80
2018-09-22T07:00:14.374Z,85
2018-09-22T07:01:14.104Z,85
2018-09-22T07:02:14.108Z,80
2018-09-22T07:03:14.324Z,85
2018-09-22T07:04:14.337Z,85
2018-09-22T07:05:14.043Z,90
2018-09-22T07:06:14.114Z,85
2018-09-22T07:07:14.291Z,90
2018-09-22T07:08:14.528Z,95
2018-09-22T07:09:14.505Z,90
2018-09-22T07:10:13.747Z,90
2018-09-22T07:11:14.478Z,90
2018-09-22T07:12:13.929Z,90
2018-09-22T07:13:13.918Z,95
2018-09-22T07:14:13.901Z,95
2018-09-22T07:15:13.623Z,100
2018-09-22T07:16:14.140Z,95
2018-09-22T07:17:13.584Z,85
2018-09-22T07:18:13.841Z,90
2018-09-22T07:19:14.367Z,90
2018-09-22T07:20:13.808Z,85
2018-09-22T07:21:13.797Z,90
2018-09-22T07:22:13.254Z,95
2018-09-22T07:23:13.763Z,100
2018-09-22T07:24:14.012Z,90
2018-09-22T07:25:13.573Z,85
2018-09-22T07:26:13.733Z,95
2018-09-22T07:27:14.228Z,95
2018-09-22T07:28:14.239Z,105
2018-09-22T07:29:14.215Z,125
2018-09-22T07:30:13.656Z,125
2018-09-22T07:31:13.648Z,120
2018-09-22T07:32:13.896Z,115
2018-09-22T07:33:13.349Z,100
2018-09-22T07:34:13.866Z,85
2018-09-22T07:35:13.853Z,85
2018-09-22T07:36:13.574Z,85
2018-09-22T07:37:14.090Z,85
2018-09-22T07:38:13.541Z,90
2018-09-22T07:39:13.537Z,105
2018-09-22T07:40:13.772Z,135
2018-09-22T07:41:13.768Z,130
2018-09-22T07:42:13.215Z,120
2018-09-22T07:43:13.205Z,115
2018-09-22T07:44:13.453Z,115
2018-09-22T07:45:13.713Z,115
2018-09-22T07:46:13.426Z,115
2018-09-22T07:47:13.416Z,115
2018-09-22T07:48:12.866Z,120
2018-09-22T07:49:13.648Z,135
2018-09-22T07:50:13.631Z,145
2018-09-22T07:51:13.617Z,155
2018-09-22T07:52:13.338Z,150
2018-09-22T07:53:12.795Z,145
2018-09-22T07:54:13.324Z,135
2018-09-22T07:55:13.301Z,125
2018-09-22T07:56:13.015Z,120
2018-09-22T07:57:13.820Z,125
2018-09-22T07:58:13.521Z,130
2018-09-22T07:59:13.505Z,130
2018-09-22T08:00:13.554Z,130
2018-09-22T08:01:13.474Z,130
2018-09-22T08:02:13.458Z,130
2018-09-22T08:03:13.449Z,135
2018-09-22T08:04:13.689Z,135
2018-09-22T08:05:13.687Z,130
2018-09-22T08:06:13.660Z,125
2018-09-22T08:07:13.394Z,130
2018-09-22T08:08:13.374Z,135
2018-09-22T08:09:13.096Z,135
2018-09-22T08:10:13.344Z,135
2018-09-22T08:11:13.328Z,145
2018-09-22T08:12:13.316Z,150
2018-09-22T08:13:13.339Z,140
2018-09-22T08:14:13.025Z,145
2018-09-22T08:15:13.011Z,150
2018-09-22T08:16:13.003Z,160
2018-09-22T08:17:13.245Z,155
2018-09-22T08:18:13.233Z,150
2018-09-22T08:19:13.214Z,145
2018-09-22T08:20:12.684Z,140
2018-09-22T08:21:13.192Z,135
2018-09-22T08:22:12.925Z,140
2018-09-22T08:23:13.175Z,140
2018-09-22T08:24:12.929Z,140
2018-09-22T08:25:13.677Z,135
2018-09-22T08:26:12.591Z,135
2018-09-22T08:27:13.369Z,130
2018-09-22T08:28:12.565Z,125
2018-09-22T08:29:12.808Z,130
2018-09-22T08:30:12.795Z,145
2018-09-22T08:31:12.777Z,155
2018-09-22T08:32:12.507Z,155
2018-09-22T08:33:13.020Z,150
2018-09-22T08:34:12.743Z,145
2018-09-22T08:35:12.737Z,140
2018-09-22T08:36:13.084Z,135
2018-09-22T08:37:13.978Z,135
2018-09-22T08:38:12.432Z,130
2018-09-22T08:39:12.962Z,135
2018-09-22T08:40:12.666Z,130
2018-09-22T08:41:12.921Z,125
2018-09-22T08:42:12.383Z,120
2018-09-22T08:43:12.631Z,120
2018-09-22T08:44:13.134Z,120
2018-09-22T08:45:12.594Z,125
2018-09-22T08:46:12.848Z,130
2018-09-22T08:47:12.830Z,135
2018-09-22T08:48:12.550Z,145
2018-09-22T08:49:12.549Z,145
2018-09-22T08:50:13.647Z,150
2018-09-22T08:51:13.204Z,155
2018-09-22T08:52:12.759Z,155
2018-09-22T08:53:12.219Z,150
2018-09-22T08:54:12.207Z,160
2018-09-22T08:55:12.728Z,170
2018-09-22T08:56:12.453Z,190
2018-09-22T08:57:12.702Z,190
2018-09-22T08:58:12.699Z,195
2018-09-22T08:59:12.411Z,200
2018-09-22T09:00:12.666Z,225
2018-09-22T09:01:12.912Z,240
2018-09-22T09:02:12.099Z,260
2018-09-22T09:03:12.621Z,260
2018-09-22T09:04:12.597Z,235
2018-09-22T09:05:12.266Z,225
2018-09-22T09:06:12.306Z,225
2018-09-22T09:07:12.296Z,220
2018-09-22T09:08:12.822Z,215
2018-09-22T09:09:12.745Z,230
2018-09-22T09:10:12.254Z,230
2018-09-22T09:11:12.507Z,230
2018-09-22T09:12:12.789Z,225
2018-09-22T09:13:12.974Z,220
2018-09-22T09:14:12.010Z,210
2018-09-22T09:15:12.205Z,210
2018-09-22T09:16:12.723Z,215
2018-09-22T09:17:13.165Z,220
2018-09-22T09:18:12.688Z,215
2018-09-22T09:19:12.694Z,200
2018-09-22T09:20:11.871Z,195
2018-09-22T09:21:12.454Z,165
2018-09-22T09:22:12.364Z,145
2018-09-22T09:23:12.097Z,150
2018-09-22T09:24:11.823Z,195
2018-09-22T09:25:12.066Z,220
2018-09-22T09:26:12.056Z,220
2018-09-22T09:27:11.787Z,225
2018-09-22T09:28:11.761Z,230
2018-09-22T09:29:12.019Z,230
2018-09-22T09:30:12.266Z,210
2018-09-22T09:31:12.008Z,195
2018-09-22T09:32:11.478Z,210
2018-09-22T09:33:12.255Z,230
2018-09-22T09:34:11.959Z,230
2018-09-22T09:35:12.473Z,235
2018-09-22T09:36:11.936Z,215
2018-09-22T09:37:11.929Z,205
2018-09-22T09:38:12.184Z,210
2018-09-22T09:39:12.156Z,215
2018-09-22T09:40:12.401Z,220
2018-09-22T09:41:12.128Z,240
2018-09-22T09:42:12.118Z,230
2018-09-22T09:43:12.188Z,225
2018-09-22T09:44:12.376Z,250
2018-09-22T09:45:11.825Z,270
2018-09-22T09:46:11.277Z,235
2018-09-22T09:47:12.330Z,215
2018-09-22T09:48:11.528Z,230
2018-09-22T09:49:11.814Z,265
2018-09-22T09:50:11.811Z,255
2018-09-22T09:51:11.750Z,245
2018-09-22T09:52:12.024Z,255
2018-09-22T09:53:11.724Z,270
2018-09-22T09:54:12.275Z,265
2018-09-22T09:55:12.086Z,270
2018-09-22T09:56:11.742Z,255
2018-09-22T09:57:11.964Z,230
2018-09-22T09:58:11.682Z,225
2018-09-22T09:59:11.673Z,235
2018-09-22T10:00:11.419Z,225
2018-09-22T10:01:11.633Z,230
2018-09-22T10:02:11.632Z,230
2018-09-22T10:03:11.890Z,225
2018-09-22T10:04:11.882Z,205
2018-09-22T10:05:11.080Z,205
2018-09-22T10:06:11.343Z,210
2018-09-22T10:07:11.596Z,230
2018-09-22T10:08:11.818Z,250
2018-09-22T10:09:12.110Z,260
2018-09-22T10:10:11.811Z,245
2018-09-22T10:11:11.560Z,285
2018-09-22T10:12:11.237Z,275
2018-09-22T10:13:11.495Z,210
2018-09-22T10:14:11.500Z,190
2018-09-22T10:15:11.735Z,220
2018-09-22T10:16:11.740Z,190
2018-09-22T10:17:11.641Z,160
2018-09-22T10:18:11.706Z,175
2018-09-22T10:19:11.452Z,190
2018-09-22T10:20:11.606Z,195
2018-09-22T10:21:11.125Z,200
2018-09-22T10:22:11.600Z,210
2018-09-22T10:23:11.674Z,225
2018-09-22T10:24:11.946Z,185
2018-09-22T10:25:11.379Z,255
2018-09-22T10:26:11.094Z,175
2018-09-22T10:27:11.063Z,190
2018-09-22T10:28:12.032Z,345
2018-09-22T10:29:11.304Z,295
2018-09-22T10:30:11.571Z,140
2018-09-22T10:31:11.280Z,140
2018-09-22T10:32:11.318Z,160
2018-09-22T10:33:11.283Z,170
2018-09-22T10:34:11.249Z,185
2018-09-22T10:35:10.972Z,190
2018-09-22T10:36:11.487Z,215
2018-09-22T10:37:11.215Z,235
2018-09-22T10:38:11.473Z,225
2018-09-22T10:39:11.226Z,250
2018-09-22T10:40:11.461Z,295
2018-09-22T10:41:10.898Z,315
2018-09-22T10:42:11.285Z,315
2018-09-22T10:43:11.675Z,310
2018-09-22T10:44:11.459Z,335
2018-09-22T10:45:10.863Z,350
2018-09-22T10:46:11.130Z,380
2018-09-22T10:47:10.835Z,405
2018-09-22T10:48:11.083Z,455
2018-09-22T10:49:11.097Z,405
2018-09-22T10:50:10.809Z,345
2018-09-22T10:51:11.778Z,320
2018-09-22T10:52:10.782Z,320
2018-09-22T10:53:11.275Z,345
2018-09-22T10:54:11.018Z,360
2018-09-22T10:55:10.761Z,375
2018-09-22T10:56:11.288Z,380
2018-09-22T10:57:11.254Z,370
2018-09-22T10:58:11.555Z,360
2018-09-22T10:59:10.961Z,370
2018-09-22T11:00:11.287Z,360
2018-09-22T11:01:10.943Z,380
2018-09-22T11:02:10.939Z,405
2018-09-22T11:03:11.211Z,405
2018-09-22T11:04:10.651Z,440
2018-09-22T11:05:10.917Z,445
2018-09-22T11:06:10.904Z,435
2018-09-22T11:07:11.145Z,415
2018-09-22T11:08:10.607Z,395
2018-09-22T11:09:11.174Z,330
2018-09-22T11:10:10.580Z,265
2018-09-22T11:11:10.844Z,250
2018-09-22T11:12:11.360Z,290
2018-09-22T11:13:11.090Z,355
2018-09-22T11:14:10.825Z,355
2018-09-22T11:15:11.069Z,360
2018-09-22T11:16:11.049Z,350
2018-09-22T11:17:10.717Z,375
2018-09-22T11:18:10.511Z,430
2018-09-22T11:19:11.345Z,460
2018-09-22T11:20:11.013Z,430
2018-09-22T11:21:10.756Z,395
2018-09-22T11:22:11.002Z,375
2018-09-22T11:23:10.985Z,335
2018-09-22T11:24:11.257Z,300
2018-09-22T11:25:10.706Z,325
2018-09-22T11:26:10.957Z,270
2018-09-22T11:27:10.614Z,190
2018-09-22T11:28:10.692Z,155
2018-09-22T11:29:10.936Z,160
2018-09-22T11:30:10.660Z,190
2018-09-22T11:31:10.641Z,210
2018-09-22T11:32:10.945Z,240
2018-09-22T11:33:10.885Z,270
2018-09-22T11:34:10.884Z,385
2018-09-22T11:35:10.633Z,460
2018-09-22T11:36:10.882Z,420
2018-09-22T11:37:10.585Z,490
2018-09-22T11:38:10.845Z,360
2018-09-22T11:39:10.559Z,340
2018-09-22T11:40:10.550Z,450
2018-09-22T11:41:10.276Z,485
2018-09-22T11:42:10.813Z,330
2018-09-22T11:43:10.525Z,375
2018-09-22T11:44:10.012Z,475
2018-09-22T11:45:10.797Z,335
2018-09-22T11:46:10.592Z,310
2018-09-22T11:47:10.490Z,305
2018-09-22T11:48:10.745Z,290
2018-09-22T11:49:10.465Z,275
2018-09-22T11:50:10.451Z,270
2018-09-22T11:51:10.487Z,230
2018-09-22T11:52:10.715Z,215
2018-09-22T11:53:10.702Z,195
2018-09-22T11:54:10.418Z,185
2018-09-22T11:55:10.408Z,180
2018-09-22T11:56:10.136Z,180
2018-09-22T11:57:10.671Z,190
2018-09-22T11:58:10.957Z,195
2018-09-22T11:59:10.627Z,195
2018-09-22T12:00:10.104Z,195
2018-09-22T12:01:10.901Z,190
2018-09-22T12:02:11.390Z,190
2018-09-22T12:03:10.330Z,185
2018-09-22T12:04:10.589Z,185
2018-09-22T12:05:10.573Z,185
2018-09-22T12:06:11.291Z,180
2018-09-22T12:07:10.289Z,185
2018-09-22T12:08:10.268Z,195
2018-09-22T12:09:10.523Z,205
2018-09-22T12:10:10.258Z,200
2018-09-22T12:11:10.248Z,180
2018-09-22T12:12:10.759Z,155
2018-09-22T12:13:09.955Z,145
2018-09-22T12:14:10.043Z,145
2018-09-22T12:15:10.463Z,165
2018-09-22T12:16:10.246Z,190
2018-09-22T12:17:09.906Z,205
2018-09-22T12:18:10.434Z,215
2018-09-22T12:19:10.419Z,230
2018-09-22T12:20:10.410Z,215
2018-09-22T12:21:10.179Z,190
2018-09-22T12:22:10.123Z,180
2018-09-22T12:23:09.583Z,175
2018-09-22T12:24:10.111Z,185
2018-09-22T12:25:10.085Z,190
2018-09-22T12:26:10.651Z,185
2018-09-22T12:27:10.334Z,175
2018-09-22T12:28:10.057Z,175
2018-09-22T12:29:10.311Z,175
2018-09-22T12:30:10.029Z,165
2018-09-22T12:31:10.016Z,165
2018-09-22T12:32:10.358Z,180
2018-09-22T12:33:10.269Z,200
2018-09-22T12:34:09.992Z,205
2018-09-22T12:35:09.990Z,195
2018-09-22T12:36:10.229Z,190
2018-09-22T12:37:09.954Z,210
2018-09-22T12:38:09.687Z,245
2018-09-22T12:39:10.198Z,230
2018-09-22T12:40:09.666Z,220
2018-09-22T12:41:09.907Z,205
2018-09-22T12:42:10.167Z,195
2018-09-22T12:43:09.364Z,190
2018-09-22T12:44:10.152Z,175
2018-09-22T12:45:09.342Z,160
2018-09-22T12:46:10.124Z,155
2018-09-22T12:47:09.878Z,150
2018-09-22T12:48:10.103Z,155
2018-09-22T12:49:09.554Z,165
2018-09-22T12:50:10.130Z,165
2018-09-22T12:51:10.537Z,165
2018-09-22T12:52:09.524Z,170
2018-09-22T12:53:10.041Z,165
2018-09-22T12:54:09.764Z,160
2018-09-22T12:55:10.285Z,155
2018-09-22T12:56:09.487Z,160
2018-09-22T12:57:10.010Z,170
2018-09-22T12:58:09.463Z,160
2018-09-22T12:59:10.362Z,150
2018-09-22T13:00:10.043Z,150
2018-09-22T13:01:09.700Z,145
2018-09-22T13:02:09.703Z,135
2018-09-22T13:03:09.411Z,135
2018-09-22T13:04:09.657Z,135
2018-09-22T13:05:09.646Z,140
2018-09-22T13:06:09.359Z,150
2018-09-22T13:07:09.358Z,155
2018-09-22T13:08:09.607Z,165
2018-09-22T13:09:09.591Z,175
2018-09-22T13:10:09.857Z,180
2018-09-22T13:11:09.835Z,190
2018-09-22T13:12:09.825Z,185
2018-09-22T13:13:09.808Z,175
2018-09-22T13:14:09.272Z,165
2018-09-22T13:15:09.276Z,160
2018-09-22T13:16:09.776Z,150
2018-09-22T13:17:09.503Z,140
2018-09-22T13:18:09.492Z,120
2018-09-22T13:19:08.952Z,100
2018-09-22T13:20:09.302Z,100
2018-09-22T13:21:09.454Z,100
2018-09-22T13:22:09.707Z,105
2018-09-22T13:23:09.436Z,105
2018-09-22T13:24:09.699Z,110
2018-09-22T13:25:09.403Z,115
2018-09-22T13:26:09.129Z,120
2018-09-22T13:27:09.924Z,115
2018-09-22T13:28:09.897Z,110
2018-09-22T13:29:09.361Z,105
2018-09-22T13:30:09.086Z,110
2018-09-22T13:31:09.076Z,120
2018-09-22T13:32:09.062Z,130
2018-09-22T13:33:09.042Z,140
2018-09-22T13:34:09.842Z,165
2018-09-22T13:35:09.561Z,170
2018-09-22T13:36:09.804Z,175
2018-09-22T13:37:09.754Z,175
2018-09-22T13:38:09.255Z,195
2018-09-22T13:39:09.246Z,200
2018-09-22T13:40:08.696Z,205
2018-09-22T13:41:09.491Z,200
2018-09-22T13:42:09.754Z,185
2018-09-22T13:43:09.209Z,140
2018-09-22T13:44:09.462Z,110
2018-09-22T13:45:09.444Z,95
2018-09-22T13:46:09.431Z,95
2018-09-22T13:47:08.897Z,110
2018-09-22T13:48:09.402Z,130
2018-09-22T13:49:09.390Z,125
2018-09-22T13:50:09.114Z,140
2018-09-22T13:51:09.109Z,155
2018-09-22T13:52:09.643Z,150
2018-09-22T13:53:09.362Z,145
2018-09-22T13:54:08.820Z,135
2018-09-22T13:55:09.528Z,135
2018-09-22T13:56:09.409Z,130
2018-09-22T13:57:10.024Z,110
2018-09-22T13:58:09.041Z,105
2018-09-22T13:59:09.031Z,105
2018-09-22T14:00:09.317Z,100
2018-09-22T14:01:09.569Z,110
2018-09-22T14:02:09.581Z,130
2018-09-22T14:03:09.231Z,140
2018-09-22T14:04:09.228Z,150
2018-09-22T14:05:08.965Z,145
2018-09-22T14:06:08.675Z,140
2018-09-22T14:07:09.200Z,110
2018-09-22T14:08:08.641Z,90
2018-09-22T14:09:09.163Z,85
2018-09-22T14:10:09.561Z,80
2018-09-22T14:11:09.160Z,85
2018-09-22T14:12:08.908Z,85
2018-09-22T14:13:09.402Z,90